createdAt,value
2022-09-17T00:00:54.337Z,20.75
2022-09-17T00:03:21.117Z,20.76
2022-09-17T00:05:47.820Z,21.03
2022-09-17T00:08:15.238Z,20.86
2022-09-17T00:10:44.777Z,20.36
2022-09-17T00:13:12.310Z,20.41
2022-09-17T00:15:43.827Z,20.14
2022-09-17T00:18:11.404Z,20.00
2022-09-17T00:20:42.985Z,20.10
2022-09-17T00:23:10.128Z,19.89
2022-09-17T00:25:41.431Z,19.95
2022-09-17T00:28:08.174Z,20.01
2022-09-17T00:30:35.553Z,20.02
2022-09-17T00:33:02.203Z,20.24
2022-09-17T00:35:29.072Z,20.62
2022-09-17T00:37:55.784Z,20.58
2022-09-17T00:40:22.659Z,20.78
2022-09-17T00:42:49.883Z,20.76
2022-09-17T00:45:16.663Z,20.77
2022-09-17T00:48:09.184Z,20.80
2022-09-17T00:50:40.216Z,20.53
2022-09-17T00:53:11.987Z,20.40
2022-09-17T00:55:42.695Z,20.49
2022-09-17T00:58:12.960Z,20.30
2022-09-17T01:00:40.404Z,19.99
2022-09-17T01:03:07.664Z,20.07
2022-09-17T01:06:08.596Z,20.00
2022-09-17T01:09:24.962Z,20.12
2022-09-17T01:12:26.922Z,19.99
2022-09-17T01:15:07.526Z,19.98
2022-09-17T01:18:00.729Z,20.07
2022-09-17T01:20:45.892Z,20.10
2022-09-17T01:23:46.491Z,20.28
2022-09-17T01:26:49.057Z,20.25
2022-09-17T01:29:21.551Z,20.40
2022-09-17T01:32:05.543Z,20.50
2022-09-17T01:34:44.716Z,20.39
2022-09-17T01:37:14.907Z,20.49
2022-09-17T01:39:54.963Z,20.27
2022-09-17T01:42:37.606Z,20.46
2022-09-17T01:45:04.518Z,20.51
2022-09-17T01:47:42.523Z,20.33
2022-09-17T01:50:27.592Z,20.44
2022-09-17T01:52:56.890Z,20.39
2022-09-17T01:55:29.914Z,20.48
2022-09-17T01:58:04.688Z,20.44
2022-09-17T02:00:31.715Z,20.43
2022-09-17T02:03:09.620Z,20.53
2022-09-17T02:06:11.069Z,20.52
2022-09-17T02:08:44.723Z,20.67
2022-09-17T02:11:15.363Z,20.45
2022-09-17T02:13:58.745Z,20.76
2022-09-17T02:16:28.731Z,20.79
2022-09-17T02:18:55.412Z,20.86
2022-09-17T02:21:43.380Z,20.88
2022-09-17T02:24:38.873Z,20.79
2022-09-17T02:27:51.195Z,20.70
2022-09-17T02:30:18.290Z,20.71
2022-09-17T02:32:45.142Z,20.54
2022-09-17T02:35:14.019Z,20.48
2022-09-17T02:37:42.471Z,20.36
2022-09-17T02:40:11.362Z,20.30
2022-09-17T02:42:56.917Z,20.43
2022-09-17T02:45:26.471Z,20.55
2022-09-17T02:48:31.983Z,20.53
2022-09-17T02:51:20.363Z,20.53
2022-09-17T02:54:10.306Z,20.51
2022-09-17T02:57:15.381Z,20.25
2022-09-17T03:00:17.007Z,20.55
2022-09-17T03:03:01.156Z,20.61
2022-09-17T03:05:29.336Z,20.57
2022-09-17T03:07:57.239Z,20.77
2022-09-17T03:10:23.938Z,21.00
2022-09-17T03:12:53.900Z,21.19
2022-09-17T03:15:20.715Z,21.30
2022-09-17T03:17:52.624Z,21.42
2022-09-17T03:20:20.120Z,21.24
2022-09-17T03:22:47.347Z,21.03
2022-09-17T03:25:14.101Z,20.79
2022-09-17T03:27:40.954Z,21.00
2022-09-17T03:30:07.856Z,20.98
2022-09-17T03:32:34.503Z,20.69
2022-09-17T03:35:01.211Z,20.70
2022-09-17T03:37:32.242Z,20.52
2022-09-17T03:39:59.799Z,20.35
2022-09-17T03:42:26.629Z,20.32
2022-09-17T03:44:53.310Z,20.03
2022-09-17T03:47:19.972Z,19.89
2022-09-17T03:49:46.940Z,20.13
2022-09-17T03:52:13.635Z,20.19
2022-09-17T03:54:40.303Z,20.16
2022-09-17T03:57:06.948Z,19.92
2022-09-17T03:59:33.667Z,19.84
2022-09-17T04:02:00.537Z,19.88
2022-09-17T04:04:27.432Z,19.58
2022-09-17T04:06:55.086Z,19.45
2022-09-17T04:09:21.734Z,19.27
2022-09-17T04:11:48.564Z,19.35
2022-09-17T04:14:15.314Z,19.51
2022-09-17T04:16:42.097Z,19.35
2022-09-17T04:19:08.765Z,19.15
2022-09-17T04:21:35.386Z,19.17
2022-09-17T04:24:02.307Z,19.19
2022-09-17T04:26:29.052Z,19.18
2022-09-17T04:28:55.951Z,19.26
2022-09-17T04:31:24.998Z,19.18
2022-09-17T04:33:51.817Z,19.35
2022-09-17T04:36:18.585Z,19.37
2022-09-17T04:38:48.896Z,19.37
2022-09-17T04:41:15.842Z,19.29
2022-09-17T04:43:42.609Z,19.23
2022-09-17T04:46:09.308Z,19.29
2022-09-17T04:48:36.137Z,19.42
2022-09-17T04:51:02.850Z,19.63
2022-09-17T04:53:29.590Z,19.69
2022-09-17T04:55:56.285Z,20.07
2022-09-17T04:58:23.161Z,20.27
2022-09-17T05:00:49.938Z,20.37
2022-09-17T05:03:16.788Z,20.21
2022-09-17T05:05:43.448Z,20.39
2022-09-17T05:08:10.182Z,20.65
2022-09-17T05:10:36.865Z,20.79
2022-09-17T05:13:03.696Z,21.02
2022-09-17T05:15:30.403Z,20.96
2022-09-17T05:17:57.288Z,21.47
2022-09-17T05:20:24.089Z,21.77
2022-09-17T05:22:52.598Z,22.39
2022-09-17T05:25:24.203Z,22.66
2022-09-17T05:27:56.300Z,22.75
2022-09-17T05:30:23.388Z,22.92
2022-09-17T05:32:59.044Z,23.57
2022-09-17T05:35:25.709Z,23.70
2022-09-17T05:37:56.220Z,23.97
2022-09-17T05:40:23.119Z,23.63
2022-09-17T05:42:49.795Z,23.90
2022-09-17T05:45:16.499Z,23.56
2022-09-17T05:47:43.220Z,23.35
2022-09-17T05:50:09.911Z,23.43
2022-09-17T05:52:36.572Z,23.67
2022-09-17T05:55:03.479Z,23.46
2022-09-17T05:57:30.586Z,23.69
2022-09-17T05:59:57.219Z,23.68
2022-09-17T06:02:24.062Z,23.69
2022-09-17T06:04:50.880Z,23.92
2022-09-17T06:07:17.573Z,24.28
2022-09-17T06:09:44.458Z,23.75
2022-09-17T06:12:11.304Z,23.78
2022-09-17T06:14:37.946Z,24.31
2022-09-17T06:17:05.387Z,24.10
2022-09-17T06:19:32.169Z,23.87
2022-09-17T06:21:58.834Z,24.17
2022-09-17T06:24:26.067Z,24.93
2022-09-17T06:26:53.045Z,24.90
2022-09-17T06:29:20.856Z,25.45
2022-09-17T06:31:51.032Z,25.38
2022-09-17T06:34:17.950Z,25.56
2022-09-17T06:36:44.603Z,25.55
2022-09-17T06:39:11.998Z,26.18
2022-09-17T06:41:39.141Z,26.55
2022-09-17T06:44:05.799Z,26.71
2022-09-17T06:46:32.535Z,26.60
2022-09-17T06:48:59.330Z,26.97
2022-09-17T06:51:26.155Z,27.37
2022-09-17T06:53:52.857Z,27.69
2022-09-17T06:56:19.542Z,28.34
2022-09-17T06:58:47.099Z,28.85
2022-09-17T07:01:14.199Z,28.64
2022-09-17T07:03:43.164Z,28.61
2022-09-17T07:06:11.062Z,28.53
2022-09-17T07:08:39.630Z,28.06
2022-09-17T07:11:06.936Z,27.83
2022-09-17T07:13:34.110Z,27.62
2022-09-17T07:16:03.043Z,27.41
2022-09-17T07:18:29.998Z,27.18
2022-09-17T07:21:01.016Z,27.02
2022-09-17T07:23:30.207Z,27.83
2022-09-17T07:25:59.118Z,28.25
2022-09-17T07:28:27.087Z,27.24
2022-09-17T07:30:54.359Z,26.99
2022-09-17T07:33:24.702Z,27.46
2022-09-17T07:35:59.629Z,28.16
2022-09-17T07:38:27.260Z,27.72
2022-09-17T07:41:01.323Z,28.19
2022-09-17T07:43:30.506Z,28.66
2022-09-17T07:45:58.574Z,28.57
2022-09-17T07:48:26.174Z,28.25
2022-09-17T07:50:52.919Z,29.42
2022-09-17T07:53:19.713Z,30.14
2022-09-17T07:55:57.907Z,30.44
2022-09-17T07:58:32.452Z,29.66
2022-09-17T08:01:10.554Z,29.08
2022-09-17T08:03:39.671Z,29.13
2022-09-17T08:06:12.027Z,30.25
2022-09-17T08:08:39.913Z,30.81
2022-09-17T08:11:08.577Z,31.18
2022-09-17T08:13:35.699Z,31.57
2022-09-17T08:16:05.602Z,32.37
2022-09-17T08:18:33.279Z,32.21
2022-09-17T08:21:01.436Z,32.38
2022-09-17T08:23:29.568Z,32.35
2022-09-17T08:25:57.950Z,32.49
2022-09-17T08:28:26.471Z,32.48
2022-09-17T08:30:54.222Z,31.70
2022-09-17T08:33:21.721Z,31.23
2022-09-17T08:35:55.648Z,31.30
2022-09-17T08:38:22.479Z,31.67
2022-09-17T08:41:05.498Z,31.53
2022-09-17T08:43:40.145Z,31.32
2022-09-17T08:46:10.407Z,31.06
2022-09-17T08:48:45.147Z,31.20
2022-09-17T08:51:32.507Z,31.99
2022-09-17T08:54:13.710Z,32.33
2022-09-17T08:56:45.612Z,32.31
2022-09-17T08:59:21.677Z,31.18
2022-09-17T09:02:05.028Z,30.93
2022-09-17T09:04:53.615Z,31.01
2022-09-17T09:07:28.133Z,31.50
2022-09-17T09:10:04.732Z,31.64
2022-09-17T09:12:35.754Z,32.34
2022-09-17T09:15:08.192Z,32.93
2022-09-17T09:17:46.910Z,33.16
2022-09-17T09:20:18.558Z,33.12
2022-09-17T09:22:51.434Z,32.77
2022-09-17T09:25:23.947Z,32.47
2022-09-17T09:27:56.513Z,32.13
2022-09-17T09:30:23.738Z,31.69
2022-09-17T09:33:02.655Z,32.22
2022-09-17T09:35:32.834Z,32.52
2022-09-17T09:37:59.503Z,32.23
2022-09-17T09:40:32.487Z,32.10
2022-09-17T09:43:03.325Z,32.58
2022-09-17T09:45:59.232Z,33.14
2022-09-17T09:48:52.026Z,33.52
2022-09-17T09:51:40.807Z,33.11
2022-09-17T09:54:18.090Z,32.30
2022-09-17T09:56:47.749Z,32.04
2022-09-17T09:59:14.433Z,32.35
2022-09-17T10:01:42.924Z,33.27
2022-09-17T10:04:25.473Z,34.04
2022-09-17T10:06:54.775Z,33.00
2022-09-17T10:09:22.770Z,33.52
2022-09-17T10:12:11.151Z,34.07
2022-09-17T10:14:46.515Z,32.75
2022-09-17T10:17:26.769Z,33.80
2022-09-17T10:20:02.250Z,34.10
2022-09-17T10:22:28.912Z,34.26
2022-09-17T10:24:57.915Z,33.75
2022-09-17T10:27:25.885Z,34.30
2022-09-17T10:30:09.207Z,34.57
2022-09-17T10:32:36.139Z,34.14
2022-09-17T10:35:25.251Z,34.34
2022-09-17T10:37:53.798Z,35.33
2022-09-17T10:40:20.541Z,35.71
2022-09-17T10:42:49.247Z,35.59
2022-09-17T10:45:34.898Z,34.91
2022-09-17T10:48:02.296Z,35.42
2022-09-17T10:50:34.662Z,35.80
2022-09-17T10:53:07.348Z,35.88
2022-09-17T10:55:58.152Z,36.59
2022-09-17T10:58:55.932Z,36.50
2022-09-17T11:01:37.728Z,36.93
2022-09-17T11:04:21.609Z,36.92
2022-09-17T11:06:59.023Z,37.44
2022-09-17T11:09:51.634Z,36.86
2022-09-17T11:12:53.722Z,36.47
2022-09-17T11:15:29.376Z,35.48
2022-09-17T11:17:58.947Z,36.07
2022-09-17T11:20:37.086Z,34.70
2022-09-17T11:23:34.300Z,34.97
2022-09-17T11:26:15.545Z,36.07
2022-09-17T11:28:57.495Z,35.79
2022-09-17T11:31:54.652Z,36.61
2022-09-17T11:34:27.243Z,35.87
2022-09-17T11:37:20.824Z,35.63
2022-09-17T11:39:57.462Z,35.20
2022-09-17T11:42:48.520Z,34.64
2022-09-17T11:45:25.887Z,35.42
2022-09-17T11:48:10.791Z,34.80
2022-09-17T11:50:41.262Z,34.60
2022-09-17T11:53:32.399Z,34.96
2022-09-17T11:56:04.850Z,35.28
2022-09-17T11:58:47.982Z,34.94
2022-09-17T12:01:26.750Z,34.46
2022-09-17T12:04:00.114Z,34.29
2022-09-17T12:06:40.326Z,34.17
2022-09-17T12:09:17.669Z,34.22
2022-09-17T12:11:52.123Z,33.81
2022-09-17T12:14:53.287Z,33.98
2022-09-17T12:17:25.138Z,34.16
2022-09-17T12:20:02.049Z,34.21
2022-09-17T12:22:36.028Z,34.12
2022-09-17T12:25:12.099Z,33.72
2022-09-17T12:27:58.650Z,33.90
2022-09-17T12:30:32.805Z,33.18
2022-09-17T12:33:30.554Z,32.75
2022-09-17T12:36:24.872Z,32.48
2022-09-17T12:39:09.726Z,31.94
2022-09-17T12:41:52.682Z,31.69
2022-09-17T12:44:43.690Z,31.07
2022-09-17T12:47:16.418Z,29.29
2022-09-17T12:50:07.836Z,25.18
2022-09-17T12:53:16.743Z,24.04
2022-09-17T12:56:06.324Z,23.32
2022-09-17T12:58:54.810Z,22.91
2022-09-17T13:01:53.412Z,22.04
2022-09-17T13:04:59.993Z,21.26
2022-09-17T13:07:46.130Z,21.11
2022-09-17T13:10:24.826Z,21.06
2022-09-17T13:13:01.032Z,20.89
2022-09-17T13:15:55.156Z,21.12
2022-09-17T13:19:16.392Z,21.74
2022-09-17T13:22:01.048Z,22.65
2022-09-17T13:24:31.317Z,23.68
2022-09-17T13:27:02.194Z,24.02
2022-09-17T13:29:47.252Z,25.15
2022-09-17T13:32:32.770Z,25.12
2022-09-17T13:35:11.535Z,25.95
2022-09-17T13:37:44.447Z,26.15
2022-09-17T13:40:23.611Z,26.49
2022-09-17T13:42:56.295Z,27.16
2022-09-17T13:45:24.955Z,26.97
2022-09-17T13:47:59.731Z,27.51
2022-09-17T13:50:43.921Z,27.13
2022-09-17T13:53:16.518Z,26.99
2022-09-17T13:55:56.110Z,26.56
2022-09-17T13:58:33.827Z,25.60
2022-09-17T14:01:07.900Z,24.84
2022-09-17T14:03:48.547Z,24.09
2022-09-17T14:06:15.249Z,23.63
2022-09-17T14:08:45.243Z,24.00
2022-09-17T14:14:51.341Z,23.67
2022-09-17T14:17:51.950Z,23.91
2022-09-17T14:20:21.854Z,23.80
2022-09-17T14:23:00.074Z,23.84
2022-09-17T14:25:40.333Z,23.99
2022-09-17T14:28:25.228Z,23.89
2022-09-17T14:30:53.225Z,23.82
2022-09-17T14:33:26.308Z,23.98
2022-09-17T14:35:59.722Z,24.12
2022-09-17T14:38:44.593Z,24.02
2022-09-17T14:41:11.500Z,24.11
2022-09-17T14:43:50.894Z,24.19
2022-09-17T14:46:24.972Z,24.28
2022-09-17T14:48:52.041Z,24.12
2022-09-17T14:51:18.927Z,24.20
2022-09-17T14:54:06.868Z,23.98
2022-09-17T14:56:58.323Z,24.33
2022-09-17T14:59:43.817Z,24.28
2022-09-17T15:02:32.771Z,24.45
2022-09-17T15:05:00.414Z,24.51
2022-09-17T15:07:28.764Z,24.56
2022-09-17T15:10:07.161Z,24.65
2022-09-17T15:12:35.503Z,24.43
2022-09-17T15:15:02.350Z,24.49
2022-09-17T15:17:30.884Z,24.82
2022-09-17T15:19:58.653Z,24.68
2022-09-17T15:22:34.336Z,24.43
2022-09-17T15:25:17.556Z,24.58
2022-09-17T15:27:46.181Z,24.33
2022-09-17T15:30:20.348Z,24.33
2022-09-17T15:32:59.212Z,24.40
2022-09-17T15:35:33.746Z,24.29
2022-09-17T15:38:22.418Z,24.29
2022-09-17T15:40:50.693Z,24.32
2022-09-17T15:43:29.057Z,24.33
2022-09-17T15:45:58.463Z,24.33
2022-09-17T15:48:28.121Z,24.29
2022-09-17T15:51:00.349Z,24.13
2022-09-17T15:53:30.644Z,24.29
2022-09-17T15:56:17.745Z,24.10
2022-09-17T15:58:47.875Z,24.16
2022-09-17T16:01:14.900Z,24.09
2022-09-17T16:03:41.969Z,24.08
2022-09-17T16:06:21.063Z,24.14
2022-09-17T16:08:56.603Z,24.05
2022-09-17T16:11:25.889Z,24.32
2022-09-17T16:13:54.734Z,24.39
2022-09-17T16:16:24.312Z,24.53
2022-09-17T16:18:51.288Z,24.54
2022-09-17T16:21:19.652Z,24.56
2022-09-17T16:23:47.014Z,24.50
2022-09-17T16:26:20.492Z,24.66
2022-09-17T16:28:52.063Z,24.52
2022-09-17T16:31:19.014Z,24.54
2022-09-17T16:33:45.720Z,24.29
2022-09-17T16:36:12.604Z,24.24
2022-09-17T16:38:40.576Z,24.18
2022-09-17T16:41:07.730Z,24.16
2022-09-17T16:43:35.552Z,24.20
2022-09-17T16:46:05.002Z,23.88
2022-09-17T16:48:32.744Z,23.71
2022-09-17T16:51:01.609Z,23.28
2022-09-17T16:53:28.362Z,23.36
2022-09-17T16:55:55.049Z,23.27
2022-09-17T16:58:21.813Z,23.19
2022-09-17T17:00:48.568Z,23.25
2022-09-17T17:03:15.952Z,23.28
2022-09-17T17:05:43.603Z,23.35
2022-09-17T17:08:10.598Z,23.53
2022-09-17T17:10:40.314Z,23.69
2022-09-17T17:13:07.319Z,23.68
2022-09-17T17:15:34.008Z,23.87
2022-09-17T17:18:00.779Z,23.92
2022-09-17T17:20:27.521Z,23.82
2022-09-17T17:22:55.365Z,23.74
2022-09-17T17:25:23.802Z,23.76
2022-09-17T17:27:50.976Z,23.78
2022-09-17T17:30:18.413Z,23.58
2022-09-17T17:32:50.331Z,23.44
2022-09-17T17:35:17.269Z,23.34
2022-09-17T17:37:44.433Z,22.94
2022-09-17T17:40:11.350Z,21.93
2022-09-17T17:42:39.644Z,20.62
2022-09-17T17:45:08.175Z,20.08
2022-09-17T17:47:35.240Z,19.79
2022-09-17T17:50:02.568Z,19.62
2022-09-17T17:52:29.396Z,19.63
2022-09-17T17:54:56.124Z,19.85
2022-09-17T17:57:22.977Z,19.77
2022-09-17T17:59:49.647Z,19.79
2022-09-17T18:02:16.488Z,19.84
2022-09-17T18:04:43.340Z,19.75
2022-09-17T18:07:10.026Z,19.83
2022-09-17T18:09:36.790Z,19.83
2022-09-17T18:12:03.607Z,19.67
2022-09-17T18:14:30.242Z,19.48
2022-09-17T18:16:57.391Z,19.45
2022-09-17T18:19:24.135Z,19.37
2022-09-17T18:21:50.862Z,19.34
2022-09-17T18:24:17.518Z,19.29
2022-09-17T18:26:45.069Z,19.38
2022-09-17T18:29:12.969Z,19.40
2022-09-17T18:31:39.959Z,19.41
2022-09-17T18:34:12.254Z,19.35
2022-09-17T18:36:39.720Z,19.23
2022-09-17T18:39:52.910Z,19.31
2022-09-17T18:41:57.488Z,19.46
2022-09-17T18:44:25.242Z,19.30
2022-09-17T18:46:51.995Z,19.38
2022-09-17T18:49:19.008Z,19.37
2022-09-17T18:51:45.751Z,19.47
2022-09-17T18:54:12.951Z,19.47
2022-09-17T18:56:41.883Z,19.59
2022-09-17T18:59:10.409Z,19.63
2022-09-17T19:01:38.009Z,19.84
2022-09-17T19:04:05.210Z,19.94
2022-09-17T19:06:32.383Z,20.05
2022-09-17T19:09:00.998Z,20.02
2022-09-17T19:11:28.065Z,20.02
2022-09-17T19:13:55.027Z,20.01
2022-09-17T19:16:22.469Z,20.00
2022-09-17T19:18:49.566Z,20.05
2022-09-17T19:21:23.530Z,19.96
2022-09-17T19:23:55.013Z,20.17
2022-09-17T19:26:26.135Z,20.06
2022-09-17T19:28:54.777Z,19.97
2022-09-17T19:31:22.041Z,19.73
2022-09-17T19:33:50.584Z,19.49
2022-09-17T19:36:18.682Z,19.48
2022-09-17T19:38:46.396Z,19.46
2022-09-17T19:41:16.122Z,19.41
2022-09-17T19:43:43.291Z,19.43
2022-09-17T19:46:15.339Z,19.28
2022-09-17T19:48:49.020Z,19.27
2022-09-17T19:51:17.021Z,19.27
2022-09-17T19:53:44.346Z,19.26
2022-09-17T19:56:13.078Z,19.31
2022-09-17T19:58:40.713Z,19.27
2022-09-17T20:01:07.461Z,19.29
2022-09-17T20:03:34.195Z,19.30
2022-09-17T20:06:05.890Z,19.33
2022-09-17T20:08:33.786Z,19.27
2022-09-17T20:11:07.812Z,19.19
2022-09-17T20:13:35.241Z,19.14
2022-09-17T20:16:06.718Z,19.18
2022-09-17T20:18:35.138Z,19.16
2022-09-17T20:21:08.153Z,18.65
2022-09-17T20:23:34.916Z,18.93
2022-09-17T20:26:01.624Z,18.92
2022-09-17T20:28:28.295Z,18.89
2022-09-17T20:31:06.585Z,19.10
2022-09-17T20:33:33.552Z,19.08
2022-09-17T20:36:10.946Z,19.03
2022-09-17T20:39:10.694Z,19.16
2022-09-17T20:41:24.880Z,19.00
2022-09-17T20:43:53.001Z,19.16
2022-09-17T20:46:27.696Z,19.21
2022-09-17T20:48:57.722Z,19.19
2022-09-17T20:51:27.190Z,19.35
2022-09-17T20:53:54.334Z,19.31
2022-09-17T20:56:28.577Z,19.19
2022-09-17T20:59:15.323Z,19.30
2022-09-17T21:01:45.282Z,19.22
2022-09-17T21:04:15.146Z,19.03
2022-09-17T21:06:42.899Z,19.15
2022-09-17T21:09:12.299Z,19.11
2022-09-17T21:11:39.477Z,19.28
2022-09-17T21:14:06.238Z,19.33
2022-09-17T21:16:33.223Z,19.34
2022-09-17T21:19:02.945Z,19.48
2022-09-17T21:21:30.426Z,19.34
2022-09-17T21:24:03.525Z,19.36
2022-09-17T21:26:30.863Z,19.33
2022-09-17T21:28:57.926Z,19.32
2022-09-17T21:31:31.744Z,19.28
2022-09-17T21:34:01.864Z,19.22
2022-09-17T21:36:30.949Z,19.38
2022-09-17T21:39:10.915Z,19.40
2022-09-17T21:41:41.562Z,19.47
2022-09-17T21:44:09.408Z,19.25
2022-09-17T21:46:37.128Z,19.46
2022-09-17T21:49:05.246Z,19.38
2022-09-17T21:51:40.402Z,19.52
2022-09-17T21:54:12.593Z,19.64
2022-09-17T21:56:39.905Z,19.66
2022-09-17T21:59:09.196Z,19.37
2022-09-17T22:01:41.886Z,19.20
2022-09-17T22:04:13.821Z,19.11
2022-09-17T22:06:41.717Z,19.06
2022-09-17T22:09:15.049Z,19.19
2022-09-17T22:11:41.717Z,19.25
2022-09-17T22:14:14.826Z,19.11
2022-09-17T22:16:43.609Z,19.09
2022-09-17T22:19:12.558Z,18.97
2022-09-17T22:21:41.905Z,18.92
2022-09-17T22:24:10.431Z,19.06
2022-09-17T22:26:39.955Z,18.75
2022-09-17T22:29:10.687Z,19.18
2022-09-17T22:31:37.589Z,19.19
2022-09-17T22:34:08.743Z,19.32
2022-09-17T22:36:35.736Z,19.33
2022-09-17T22:39:02.670Z,19.30
2022-09-17T22:41:31.631Z,19.22
2022-09-17T22:44:01.419Z,19.36
2022-09-17T22:46:30.435Z,19.44
2022-09-17T22:48:57.794Z,19.25
2022-09-17T22:51:26.003Z,19.18
2022-09-17T22:53:52.807Z,19.24
2022-09-17T22:56:21.166Z,19.17
2022-09-17T22:58:48.564Z,19.38
2022-09-17T23:01:19.371Z,19.33
2022-09-17T23:03:48.777Z,19.30
2022-09-17T23:06:18.289Z,19.14
2022-09-17T23:08:45.140Z,19.16
2022-09-17T23:11:25.749Z,19.13
2022-09-17T23:13:53.012Z,19.19
2022-09-17T23:16:20.291Z,19.27
2022-09-17T23:18:47.221Z,19.09
2022-09-17T23:21:16.733Z,19.20
2022-09-17T23:23:45.467Z,19.22
2022-09-17T23:26:15.425Z,19.15
2022-09-17T23:28:42.354Z,19.07
2022-09-17T23:31:25.680Z,19.16
2022-09-17T23:33:53.839Z,19.22
2022-09-17T23:36:29.288Z,19.22
2022-09-17T23:38:57.420Z,19.10
2022-09-17T23:41:30.484Z,19.06
2022-09-17T23:44:00.167Z,19.20
2022-09-17T23:46:29.564Z,19.09
2022-09-17T23:48:56.355Z,19.09
2022-09-17T23:51:25.349Z,19.17
2022-09-17T23:53:53.638Z,18.95
2022-09-17T23:56:23.207Z,18.98
2022-09-17T23:58:50.477Z,18.99
